Time;durP1;ratioP1;P1;durP2;ratioP2;P2;SDS_P1;SDS_P2;PMS_P1;PMS_P2;Temp;Humidity;BMP_temperature;BMP_pressure;BME280_temperature;BME280_humidity;BME280_pressure;Samples;Min_cycle;Max_cycle;Signal;HPM_P1;HPM_P2
2022/08/28 00:00:27;;;;;;;7.80;3.15;;;16.10;99.90;;;;;;5056379;28;20033;-53
2022/08/28 00:02:53;;;;;;;6.22;3.30;;;16.10;99.90;;;;;;5056413;28;20519;-51
2022/08/28 00:05:20;;;;;;;8.85;3.55;;;16.10;99.90;;;;;;5056397;28;20067;-54
2022/08/28 00:07:47;;;;;;;7.05;2.88;;;16.00;99.90;;;;;;5056352;28;20045;-50
2022/08/28 00:10:15;;;;;;;8.18;3.13;;;16.00;99.90;;;;;;5056098;28;20044;-52
2022/08/28 00:12:42;;;;;;;6.90;3.00;;;16.00;99.90;;;;;;5056216;28;20098;-51
2022/08/28 00:15:09;;;;;;;6.57;3.30;;;16.00;99.90;;;;;;5055521;28;20049;-52
2022/08/28 00:17:38;;;;;;;5.32;3.10;;;16.00;99.90;;;;;;5056498;28;20037;-49
2022/08/28 00:20:05;;;;;;;8.07;3.42;;;15.90;99.90;;;;;;5055863;28;20042;-52
2022/08/28 00:22:32;;;;;;;8.02;3.42;;;15.90;99.90;;;;;;5055636;28;20045;-49
2022/08/28 00:24:59;;;;;;;8.00;3.70;;;15.90;99.90;;;;;;5065530;28;20045;-50
2022/08/28 00:30:11;;;;;;;9.27;3.90;;;15.80;99.90;;;;;;5075019;28;20043;-49
2022/08/28 00:32:38;;;;;;;8.02;3.20;;;15.80;99.90;;;;;;5075266;28;20479;-54
2022/08/28 00:35:05;;;;;;;7.53;3.30;;;15.80;99.90;;;;;;5075875;28;20521;-53
2022/08/28 00:37:32;;;;;;;7.05;3.08;;;15.70;99.90;;;;;;5075807;28;20537;-51
2022/08/28 00:39:59;;;;;;;8.95;3.30;;;15.80;99.90;;;;;;5075747;28;20037;-51
2022/08/28 00:42:27;;;;;;;5.65;2.95;;;15.70;99.90;;;;;;5074295;28;20406;-52
2022/08/28 00:44:54;;;;;;;7.60;3.00;;;15.70;99.90;;;;;;5075492;28;20041;-50
2022/08/28 00:47:23;;;;;;;6.68;3.75;;;15.60;99.90;;;;;;5075938;28;20098;-51
2022/08/28 00:49:51;;;;;;;5.72;3.00;;;15.60;99.90;;;;;;5076091;28;20102;-48
2022/08/28 00:52:17;;;;;;;5.95;3.17;;;15.60;99.90;;;;;;5075364;28;20501;-54
2022/08/28 00:54:45;;;;;;;6.80;3.47;;;15.60;99.90;;;;;;5075823;28;20059;-50
2022/08/28 00:57:25;;;;;;;7.65;3.33;;;15.50;99.90;;;;;;5075609;28;20036;-52
2022/08/28 00:59:53;;;;;;;5.13;3.33;;;15.50;99.90;;;;;;5075546;28;20037;-50
2022/08/28 01:02:20;;;;;;;7.15;3.33;;;15.50;99.90;;;;;;5074971;28;21628;-51
2022/08/28 01:04:46;;;;;;;7.07;3.17;;;15.50;99.90;;;;;;5075627;28;20036;-54
2022/08/28 01:07:14;;;;;;;6.43;3.22;;;15.50;99.90;;;;;;5074979;28;20487;-51
2022/08/28 01:09:41;;;;;;;8.10;3.55;;;15.40;99.90;;;;;;5074963;28;20036;-52
2022/08/28 01:12:07;;;;;;;5.93;3.47;;;15.40;99.90;;;;;;5074944;28;20071;-53
2022/08/28 01:14:35;;;;;;;6.95;3.38;;;15.40;99.90;;;;;;5075070;28;20052;-50
2022/08/28 01:17:01;;;;;;;6.65;3.40;;;15.30;99.90;;;;;;5075523;28;20063;-49
2022/08/28 01:19:29;;;;;;;5.90;2.90;;;15.30;99.90;;;;;;5074917;28;20399;-53
2022/08/28 01:21:56;;;;;;;6.68;3.45;;;15.20;99.90;;;;;;5074682;28;20040;-52
2022/08/28 01:24:23;;;;;;;4.82;3.05;;;15.10;99.90;;;;;;5075280;28;20090;-50
2022/08/28 01:26:50;;;;;;;6.28;3.17;;;15.10;99.90;;;;;;5074503;28;20044;-52
2022/08/28 01:29:16;;;;;;;9.32;3.35;;;15.10;99.90;;;;;;5074692;28;20052;-49
2022/08/28 01:31:43;;;;;;;7.95;3.20;;;15.10;99.90;;;;;;5074687;28;20045;-50
2022/08/28 01:34:11;;;;;;;7.40;3.47;;;15.10;99.90;;;;;;5074570;28;20045;-51
2022/08/28 01:36:38;;;;;;;4.90;3.25;;;15.10;99.90;;;;;;5074690;28;20041;-51
2022/08/28 01:39:05;;;;;;;6.70;3.75;;;15.00;99.90;;;;;;5074756;28;20051;-51
2022/08/28 01:41:32;;;;;;;5.50;2.95;;;15.00;99.90;;;;;;5074138;28;20487;-50
2022/08/28 01:43:59;;;;;;;8.55;3.08;;;15.00;99.90;;;;;;5074378;28;20464;-49
2022/08/28 01:46:25;;;;;;;6.63;3.05;;;14.90;99.90;;;;;;5074158;28;20044;-53
2022/08/28 01:48:52;;;;;;;6.78;2.97;;;14.90;99.90;;;;;;5074717;28;20047;-51
2022/08/28 01:51:19;;;;;;;6.45;2.92;;;14.90;99.90;;;;;;5074769;28;20113;-51
2022/08/28 01:53:50;;;;;;;8.88;3.03;;;14.80;99.90;;;;;;5074278;28;20046;-51
2022/08/28 01:56:16;;;;;;;5.43;2.85;;;14.80;99.90;;;;;;5074283;28;20484;-50
2022/08/28 01:58:43;;;;;;;5.90;2.85;;;14.80;99.90;;;;;;5074411;28;20075;-49
2022/08/28 02:01:10;;;;;;;6.82;2.80;;;14.80;99.90;;;;;;5074167;28;20044;-50
2022/08/28 02:03:37;;;;;;;4.78;2.92;;;14.80;99.90;;;;;;5073833;28;20051;-50
2022/08/28 02:06:04;;;;;;;7.00;2.72;;;14.80;99.90;;;;;;5074560;28;20037;-50
2022/08/28 02:08:30;;;;;;;8.02;3.25;;;14.80;99.90;;;;;;5074236;28;20072;-50
2022/08/28 02:10:57;;;;;;;5.95;3.40;;;14.80;99.90;;;;;;5073885;28;20433;-52
2022/08/28 02:13:24;;;;;;;7.97;3.55;;;14.70;99.90;;;;;;5073782;28;20094;-51
2022/08/28 02:15:51;;;;;;;6.60;2.83;;;14.80;99.90;;;;;;5074328;28;20071;-49
2022/08/28 02:18:18;;;;;;;6.43;2.95;;;14.80;99.90;;;;;;5074311;28;20110;-50
2022/08/28 02:20:45;;;;;;;5.80;2.88;;;14.70;99.90;;;;;;5074141;28;20055;-49
2022/08/28 02:23:12;;;;;;;6.95;3.13;;;14.70;99.90;;;;;;5073728;28;20041;-49
2022/08/28 02:25:39;;;;;;;8.18;2.95;;;14.70;99.90;;;;;;5073163;28;20094;-50
2022/08/28 02:28:05;;;;;;;4.63;2.80;;;14.70;99.90;;;;;;5073777;28;20052;-48
2022/08/28 02:30:32;;;;;;;7.35;3.35;;;14.60;99.90;;;;;;5072884;28;20048;-49
2022/08/28 02:32:59;;;;;;;5.20;2.53;;;14.60;99.90;;;;;;5072868;28;20102;-52
2022/08/28 02:35:26;;;;;;;6.82;3.03;;;14.60;99.90;;;;;;5073682;28;20048;-50
2022/08/28 02:37:53;;;;;;;6.13;2.90;;;14.50;99.90;;;;;;5073762;28;20063;-53
2022/08/28 02:40:21;;;;;;;4.45;2.80;;;14.50;99.90;;;;;;5073950;28;20087;-49
2022/08/28 02:42:48;;;;;;;5.75;3.00;;;14.50;99.90;;;;;;5073482;28;20044;-50
2022/08/28 02:45:15;;;;;;;6.10;2.72;;;14.50;99.90;;;;;;5074049;28;20051;-52
2022/08/28 02:47:42;;;;;;;6.47;2.65;;;14.40;99.90;;;;;;5073384;28;20548;-50
2022/08/28 02:50:08;;;;;;;5.82;2.70;;;14.40;99.90;;;;;;5073675;28;20091;-52
2022/08/28 02:52:35;;;;;;;5.93;2.85;;;14.40;99.90;;;;;;5073809;28;20048;-53
2022/08/28 02:55:02;;;;;;;4.82;2.38;;;14.40;99.90;;;;;;5073731;28;20098;-52
2022/08/28 02:57:29;;;;;;;4.40;2.72;;;14.40;99.90;;;;;;5073719;28;20086;-48
2022/08/28 02:59:55;;;;;;;6.70;2.83;;;14.40;99.90;;;;;;5073964;28;20075;-52
2022/08/28 03:02:23;;;;;;;5.53;2.60;;;14.40;99.90;;;;;;5073350;28;20628;-51
2022/08/28 03:04:50;;;;;;;5.30;2.42;;;14.40;99.90;;;;;;5073464;28;20378;-51
2022/08/28 03:07:18;;;;;;;4.50;2.60;;;14.30;99.90;;;;;;5073512;28;20047;-51
2022/08/28 03:09:45;;;;;;;5.57;2.53;;;14.40;99.90;;;;;;5073154;28;20040;-49
2022/08/28 03:12:12;;;;;;;6.80;2.60;;;14.30;99.90;;;;;;5073902;28;20053;-51
2022/08/28 03:14:38;;;;;;;5.35;2.70;;;14.30;99.90;;;;;;5073540;28;20494;-49
2022/08/28 03:17:06;;;;;;;5.35;2.30;;;14.30;99.90;;;;;;5073290;28;20044;-50
2022/08/28 03:19:32;;;;;;;4.88;2.60;;;14.30;99.90;;;;;;5073101;28;20044;-54
2022/08/28 03:21:59;;;;;;;4.68;2.60;;;14.20;99.90;;;;;;5073350;28;20040;-50
2022/08/28 03:24:26;;;;;;;4.88;2.55;;;14.20;99.90;;;;;;5073643;28;20102;-54
2022/08/28 03:26:53;;;;;;;5.05;2.53;;;14.20;99.90;;;;;;5071981;28;20040;-52
2022/08/28 03:29:20;;;;;;;4.78;2.20;;;14.20;99.90;;;;;;5073554;28;20044;-52
2022/08/28 03:31:47;;;;;;;6.13;2.50;;;14.20;99.90;;;;;;5073083;28;20086;-51
2022/08/28 03:34:13;;;;;;;5.35;2.40;;;14.20;99.90;;;;;;5073121;28;20446;-54
2022/08/28 03:36:40;;;;;;;4.97;2.40;;;14.20;99.90;;;;;;5073086;28;20043;-54
2022/08/28 03:39:07;;;;;;;4.97;2.50;;;14.10;99.90;;;;;;5073523;28;20040;-52
2022/08/28 03:41:33;;;;;;;5.70;2.55;;;14.10;99.90;;;;;;5073410;28;20133;-56
2022/08/28 03:44:00;;;;;;;3.35;2.53;;;14.10;99.90;;;;;;5074387;28;20043;-52
2022/08/28 03:46:27;;;;;;;5.40;2.63;;;14.10;99.90;;;;;;5076458;28;20041;-50
2022/08/28 03:48:54;;;;;;;4.45;2.20;;;14.20;99.90;;;;;;5076467;28;20044;-52
2022/08/28 03:51:21;;;;;;;9.55;2.67;;;14.20;99.90;;;;;;5076652;28;20048;-51
2022/08/28 03:53:55;;;;;;;5.85;2.30;;;14.20;99.90;;;;;;5077081;28;20041;-49
2022/08/28 03:56:22;;;;;;;4.45;2.13;;;14.20;99.90;;;;;;5076951;28;20044;-49
2022/08/28 03:58:50;;;;;;;5.25;2.17;;;14.20;99.90;;;;;;5076204;28;20544;-52
2022/08/28 04:01:16;;;;;;;8.68;2.38;;;14.30;99.90;;;;;;5076228;28;20482;-52
2022/08/28 04:03:43;;;;;;;4.68;2.40;;;14.30;99.90;;;;;;5076434;28;20052;-51
2022/08/28 04:06:10;;;;;;;4.15;2.05;;;14.30;99.90;;;;;;5076182;28;20114;-51
2022/08/28 04:08:37;;;;;;;7.97;2.00;;;14.30;99.90;;;;;;5076278;28;20380;-49
2022/08/28 04:11:04;;;;;;;6.15;2.17;;;14.30;99.90;;;;;;5076274;28;20040;-52
2022/08/28 04:13:30;;;;;;;5.40;2.78;;;14.40;99.90;;;;;;5075884;28;20041;-50
2022/08/28 04:15:57;;;;;;;4.80;2.40;;;14.40;99.90;;;;;;5076096;28;20454;-50
2022/08/28 04:18:24;;;;;;;6.60;2.10;;;14.40;99.90;;;;;;5076250;28;20036;-52
2022/08/28 04:20:51;;;;;;;5.05;2.22;;;14.40;99.90;;;;;;5076339;28;20048;-50
2022/08/28 04:23:18;;;;;;;7.97;2.90;;;14.50;99.90;;;;;;5075779;28;20036;-49
2022/08/28 04:25:44;;;;;;;4.43;2.05;;;14.50;99.90;;;;;;5076394;28;20487;-53
2022/08/28 04:28:11;;;;;;;3.35;2.30;;;14.50;99.90;;;;;;5076109;28;20040;-50
2022/08/28 04:30:38;;;;;;;6.25;2.22;;;14.60;99.90;;;;;;5075863;28;20044;-48
2022/08/28 04:33:05;;;;;;;6.50;2.13;;;14.60;99.90;;;;;;5075964;28;20467;-49
2022/08/28 04:35:32;;;;;;;6.68;2.00;;;14.60;99.90;;;;;;5075724;28;20044;-51
2022/08/28 04:37:59;;;;;;;5.75;1.90;;;14.50;99.90;;;;;;5076080;28;20040;-51
2022/08/28 04:40:26;;;;;;;6.60;2.33;;;14.50;99.90;;;;;;5075728;28;20544;-48
2022/08/28 04:42:52;;;;;;;7.78;2.25;;;14.50;99.90;;;;;;5075339;28;20112;-49
2022/08/28 04:45:20;;;;;;;7.82;2.30;;;14.40;99.90;;;;;;5075350;28;20041;-52
2022/08/28 04:47:47;;;;;;;4.72;2.13;;;14.40;99.90;;;;;;5075319;28;20049;-49
2022/08/28 04:50:14;;;;;;;5.72;2.20;;;14.40;99.90;;;;;;5075851;28;20048;-51
2022/08/28 04:52:42;;;;;;;8.55;2.33;;;14.40;99.90;;;;;;5075231;28;20089;-48
2022/08/28 04:55:09;;;;;;;4.55;1.85;;;14.40;99.90;;;;;;5074261;28;20170;-49
2022/08/28 04:57:36;;;;;;;8.07;2.25;;;14.40;99.90;;;;;;5075153;28;20067;-48
2022/08/28 05:00:02;;;;;;;4.00;2.00;;;14.40;99.90;;;;;;5075410;28;20033;-54
2022/08/28 05:02:30;;;;;;;6.32;2.40;;;14.40;99.90;;;;;;5074914;28;20059;-50
2022/08/28 05:04:57;;;;;;;3.58;2.00;;;14.40;99.90;;;;;;5075206;28;20075;-54
2022/08/28 05:07:24;;;;;;;5.35;2.05;;;14.30;99.90;;;;;;5074302;28;20387;-51
2022/08/28 05:09:51;;;;;;;6.15;2.20;;;14.30;99.90;;;;;;5075080;28;20101;-51
2022/08/28 05:12:18;;;;;;;6.20;2.40;;;14.20;99.90;;;;;;5075151;28;20135;-50
2022/08/28 05:14:45;;;;;;;8.13;2.53;;;14.20;99.90;;;;;;5075112;28;20098;-52
2022/08/28 05:17:12;;;;;;;5.22;2.05;;;14.20;99.90;;;;;;5074891;28;20049;-52
2022/08/28 05:19:39;;;;;;;7.85;2.58;;;14.20;99.90;;;;;;5074962;28;20036;-49
2022/08/28 05:22:08;;;;;;;5.50;2.60;;;14.20;99.90;;;;;;5074604;28;20048;-52
2022/08/28 05:24:36;;;;;;;4.60;2.17;;;14.20;99.90;;;;;;5074660;28;20048;-52
2022/08/28 05:27:03;;;;;;;6.45;2.15;;;14.20;99.90;;;;;;5075022;28;20045;-50
2022/08/28 05:29:29;;;;;;;5.88;2.20;;;14.20;99.90;;;;;;5075119;28;20044;-51
2022/08/28 05:31:56;;;;;;;6.35;2.28;;;14.20;99.90;;;;;;5074962;28;20063;-51
2022/08/28 05:34:23;;;;;;;7.75;2.10;;;14.20;99.90;;;;;;5074611;28;20064;-53
2022/08/28 05:36:50;;;;;;;4.55;2.33;;;14.30;99.90;;;;;;5074513;28;20040;-52
2022/08/28 05:39:16;;;;;;;4.30;2.10;;;14.30;99.90;;;;;;5072888;28;20048;-53
2022/08/28 05:41:43;;;;;;;4.45;1.98;;;14.40;99.90;;;;;;5062690;28;20036;-54
2022/08/28 05:44:10;;;;;;;5.75;2.15;;;14.40;99.90;;;;;;5073636;28;20040;-49
2022/08/28 05:46:37;;;;;;;5.65;2.30;;;14.40;99.90;;;;;;5062917;28;20071;-49
2022/08/28 05:49:03;;;;;;;5.95;2.58;;;14.40;99.90;;;;;;5054346;28;20052;-48
2022/08/28 05:51:35;;;;;;;5.65;2.28;;;14.40;99.90;;;;;;5054323;28;20048;-50
2022/08/28 05:54:02;;;;;;;5.70;2.50;;;14.50;99.90;;;;;;5055468;28;20040;-49
2022/08/28 05:56:29;;;;;;;6.85;2.50;;;14.50;99.90;;;;;;5074519;28;20048;-52
2022/08/28 05:58:56;;;;;;;4.47;2.25;;;14.50;99.90;;;;;;5061820;28;20463;-48
2022/08/28 06:01:22;;;;;;;4.90;2.10;;;14.50;99.90;;;;;;5058722;28;20036;-52
2022/08/28 06:03:49;;;;;;;3.58;2.20;;;14.50;99.90;;;;;;5074098;28;20056;-51
2022/08/28 06:06:16;;;;;;;5.85;2.20;;;14.50;99.90;;;;;;5070611;28;20044;-50
2022/08/28 06:08:43;;;;;;;6.35;2.40;;;14.50;99.90;;;;;;5073100;28;20041;-51
2022/08/28 06:11:24;;;;;;;5.43;2.42;;;14.50;99.90;;;;;;5060873;28;20479;-50
2022/08/28 06:13:52;;;;;;;5.80;2.17;;;14.50;99.90;;;;;;5054403;28;20052;-48
2022/08/28 06:16:19;;;;;;;3.78;2.13;;;14.50;99.90;;;;;;5065084;28;20052;-51
2022/08/28 06:18:46;;;;;;;5.03;2.35;;;14.60;99.90;;;;;;5054156;28;20071;-49
2022/08/28 06:21:12;;;;;;;5.22;2.33;;;14.70;99.90;;;;;;5053750;28;20087;-50
2022/08/28 06:23:40;;;;;;;4.47;2.20;;;14.70;99.90;;;;;;5054240;28;20048;-50
2022/08/28 06:26:06;;;;;;;5.10;2.30;;;14.80;99.90;;;;;;5054016;28;20071;-51
2022/08/28 06:28:33;;;;;;;4.20;2.38;;;14.80;99.90;;;;;;5054136;28;20064;-54
2022/08/28 06:31:00;;;;;;;5.68;2.33;;;14.90;99.90;;;;;;5053276;28;20049;-51
2022/08/28 06:33:47;;;;;;;4.13;2.40;;;14.90;99.90;;;;;;5054054;28;20052;-49
2022/08/28 06:36:13;;;;;;;6.72;2.30;;;15.00;99.90;;;;;;5058267;28;20104;-50
2022/08/28 06:38:45;;;;;;;5.35;2.33;;;15.00;99.90;;;;;;5065045;28;20048;-50
2022/08/28 06:41:12;;;;;;;5.30;2.65;;;15.00;99.90;;;;;;5074874;28;20097;-50
2022/08/28 06:43:39;;;;;;;4.78;2.80;;;15.10;99.90;;;;;;5090508;28;20055;-50
2022/08/28 06:46:05;;;;;;;7.45;2.65;;;15.20;99.90;;;;;;5065583;28;20496;-49
2022/08/28 06:48:32;;;;;;;5.03;2.28;;;15.20;99.90;;;;;;5069337;28;20041;-52
2022/08/28 06:50:59;;;;;;;7.10;2.60;;;15.30;99.90;;;;;;5057933;28;20052;-49
2022/08/28 06:53:26;;;;;;;8.75;2.47;;;15.40;99.90;;;;;;5068549;28;20548;-52
2022/08/28 06:55:52;;;;;;;6.07;2.35;;;15.50;99.90;;;;;;5052839;28;20041;-52
2022/08/28 06:58:19;;;;;;;5.95;2.03;;;15.60;99.90;;;;;;5059541;28;20036;-53
2022/08/28 07:00:46;;;;;;;7.85;2.65;;;15.70;99.90;;;;;;5053877;28;20522;-51
2022/08/28 07:03:16;;;;;;;5.28;2.17;;;15.80;99.90;;;;;;5055054;28;20067;-48
2022/08/28 07:05:43;;;;;;;5.60;1.90;;;15.80;99.90;;;;;;5055886;28;20072;-52
2022/08/28 07:08:10;;;;;;;11.40;2.45;;;15.90;99.90;;;;;;5053073;28;20102;-51
2022/08/28 07:10:37;;;;;;;8.88;2.50;;;16.00;99.90;;;;;;5053413;28;20511;-49
2022/08/28 07:13:04;;;;;;;5.40;1.80;;;16.00;99.90;;;;;;5053314;28;20056;-49
2022/08/28 07:15:31;;;;;;;7.20;1.90;;;16.00;99.90;;;;;;5058677;28;20113;-49
2022/08/28 07:17:58;;;;;;;7.38;1.88;;;16.10;99.90;;;;;;5056264;28;20044;-51
2022/08/28 07:20:25;;;;;;;5.68;1.85;;;16.10;99.90;;;;;;5056989;28;20404;-52
2022/08/28 07:22:52;;;;;;;8.60;2.08;;;16.20;99.90;;;;;;5069055;28;20037;-49
2022/08/28 07:25:25;;;;;;;8.15;1.80;;;16.20;99.90;;;;;;5056653;28;20033;-48
2022/08/28 07:27:52;;;;;;;6.22;1.67;;;16.30;99.90;;;;;;5069447;28;20545;-52
2022/08/28 07:30:18;;;;;;;7.70;2.00;;;16.30;99.90;;;;;;5055851;28;20044;-50
2022/08/28 07:32:48;;;;;;;7.78;2.08;;;16.30;99.90;;;;;;5064120;28;20068;-49
2022/08/28 07:35:15;;;;;;;7.00;1.90;;;16.40;99.90;;;;;;5059818;28;20040;-50
2022/08/28 07:37:43;;;;;;;7.50;2.22;;;16.40;99.90;;;;;;5072701;28;20047;-49
2022/08/28 07:40:10;;;;;;;9.90;2.28;;;16.50;99.90;;;;;;5078849;28;20028;-48
2022/08/28 07:45:24;;;;;;;8.98;1.95;;;16.50;99.90;;;;;;5076604;28;20040;-49
2022/08/28 07:47:51;;;;;;;6.25;2.10;;;16.60;99.90;;;;;;5077285;28;20110;-50
2022/08/28 07:50:18;;;;;;;6.53;2.15;;;16.60;99.90;;;;;;5090926;28;20048;-51
2022/08/28 07:52:44;;;;;;;6.82;2.75;;;16.60;99.90;;;;;;5092664;28;20039;-51
2022/08/28 07:55:11;;;;;;;5.68;2.10;;;16.70;99.90;;;;;;5058891;28;20078;-51
2022/08/28 07:57:39;;;;;;;5.97;1.88;;;16.70;99.90;;;;;;5066587;28;20455;-50
2022/08/28 08:00:06;;;;;;;9.52;2.78;;;16.70;99.90;;;;;;5057999;28;20041;-51
2022/08/28 08:02:36;;;;;;;9.15;2.60;;;16.80;99.90;;;;;;5070575;28;20121;-52
2022/08/28 08:05:04;;;;;;;11.45;2.30;;;16.90;99.90;;;;;;5097074;28;20039;-52
2022/08/28 08:07:32;;;;;;;6.32;2.35;;;16.90;99.90;;;;;;5074856;28;20095;-50
2022/08/28 08:09:58;;;;;;;7.72;2.20;;;16.90;99.90;;;;;;5073725;28;20169;-53
2022/08/28 08:12:25;;;;;;;8.40;2.03;;;17.00;99.90;;;;;;5056546;28;20049;-49
2022/08/28 08:14:55;;;;;;;7.38;2.63;;;17.00;99.90;;;;;;5067866;28;20037;-46
2022/08/28 08:17:21;;;;;;;9.50;1.95;;;17.10;99.90;;;;;;5069359;28;20078;-51
2022/08/28 08:19:48;;;;;;;5.75;1.73;;;17.20;99.90;;;;;;5075871;28;20041;-51
2022/08/28 08:22:15;;;;;;;9.75;1.80;;;17.30;99.90;;;;;;5069796;28;20035;-49
2022/08/28 08:24:42;;;;;;;6.32;2.20;;;17.30;99.90;;;;;;5096282;28;20053;-53
2022/08/28 08:27:09;;;;;;;7.68;1.80;;;17.40;99.90;;;;;;5092238;28;20048;-50
2022/08/28 08:29:36;;;;;;;6.18;1.50;;;17.50;99.90;;;;;;5095874;28;20040;-51
2022/08/28 08:32:04;;;;;;;8.05;2.17;;;17.60;99.90;;;;;;5065350;28;20442;-51
2022/08/28 08:34:31;;;;;;;6.85;1.70;;;17.60;99.90;;;;;;5085054;28;20540;-47
2022/08/28 08:36:58;;;;;;;8.43;1.98;;;17.70;99.90;;;;;;5095203;28;20391;-50
2022/08/28 08:39:25;;;;;;;4.05;1.50;;;17.80;99.90;;;;;;5094650;28;20475;-49
2022/08/28 08:41:52;;;;;;;7.90;1.92;;;17.80;99.90;;;;;;5073087;28;20037;-52
2022/08/28 08:44:19;;;;;;;7.38;1.88;;;17.90;99.90;;;;;;5069659;28;20051;-53
2022/08/28 08:46:45;;;;;;;8.43;1.90;;;18.00;99.90;;;;;;5075771;28;20161;-52
2022/08/28 08:49:12;;;;;;;7.80;1.70;;;18.00;99.90;;;;;;5074968;28;20047;-49
2022/08/28 08:51:39;;;;;;;7.55;1.85;;;18.10;99.90;;;;;;5063241;28;20040;-48
2022/08/28 08:54:06;;;;;;;7.13;2.00;;;18.20;99.90;;;;;;5095468;28;20444;-50
2022/08/28 08:56:33;;;;;;;9.07;2.20;;;18.30;99.90;;;;;;5095548;28;20093;-50
2022/08/28 08:59:00;;;;;;;8.13;1.88;;;18.40;99.90;;;;;;5077965;28;20475;-52
2022/08/28 09:01:27;;;;;;;5.28;1.80;;;18.40;99.90;;;;;;5071634;28;20045;-49
2022/08/28 09:03:54;;;;;;;7.43;1.80;;;18.50;99.90;;;;;;5090306;28;20048;-50
2022/08/28 09:06:21;;;;;;;7.88;1.80;;;18.50;99.90;;;;;;5095494;28;20036;-51
2022/08/28 09:08:48;;;;;;;11.65;2.05;;;18.60;99.90;;;;;;5089333;28;20049;-48
2022/08/28 09:11:15;;;;;;;6.57;1.92;;;18.80;99.90;;;;;;5074758;28;20090;-50
2022/08/28 09:13:41;;;;;;;7.00;2.22;;;19.00;99.90;;;;;;5076578;28;20553;-51
2022/08/28 09:16:08;;;;;;;4.72;1.63;;;19.00;99.90;;;;;;5094155;28;20048;-49
2022/08/28 09:18:35;;;;;;;8.73;1.70;;;19.00;99.90;;;;;;5082544;28;20048;-53
2022/08/28 09:21:04;;;;;;;5.82;1.70;;;19.00;99.90;;;;;;5090315;28;20043;-53
2022/08/28 09:23:31;;;;;;;6.93;2.00;;;19.00;99.90;;;;;;5095173;28;20385;-53
2022/08/28 09:26:00;;;;;;;5.15;1.90;;;19.00;99.90;;;;;;5095532;28;20360;-51
2022/08/28 09:28:27;;;;;;;8.88;1.85;;;19.00;99.60;;;;;;5078947;28;20040;-48
2022/08/28 09:30:54;;;;;;;7.47;1.73;;;19.10;99.70;;;;;;5074898;28;20082;-52
2022/08/28 09:33:21;;;;;;;5.15;1.38;;;19.20;98.80;;;;;;5083614;28;20071;-54
2022/08/28 09:35:48;;;;;;;9.07;1.60;;;19.20;99.20;;;;;;5079554;28;20045;-53
2022/08/28 09:38:14;;;;;;;5.53;1.60;;;19.20;98.80;;;;;;5057859;28;20062;-50
2022/08/28 09:43:27;;;;;;;6.75;1.60;;;19.20;98.40;;;;;;5092997;28;20040;-50
2022/08/28 09:45:54;;;;;;;6.28;1.77;;;19.30;98.30;;;;;;5061057;28;20072;-52
2022/08/28 09:48:21;;;;;;;8.15;1.70;;;19.40;98.60;;;;;;5054308;28;20052;-53
2022/08/28 09:50:47;;;;;;;8.10;1.83;;;19.40;98.40;;;;;;5056548;28;20053;-49
2022/08/28 09:53:14;;;;;;;6.00;1.60;;;19.50;98.20;;;;;;5072278;28;20040;-51
2022/08/28 09:55:41;;;;;;;7.55;1.70;;;19.60;98.10;;;;;;5059396;28;20045;-51
2022/08/28 09:58:08;;;;;;;5.90;1.70;;;19.70;97.70;;;;;;5072900;28;20536;-53
2022/08/28 10:00:35;;;;;;;5.55;1.65;;;19.70;97.20;;;;;;5076337;28;20506;-51
2022/08/28 10:03:02;;;;;;;7.03;1.70;;;19.80;97.30;;;;;;5065325;28;20506;-53
2022/08/28 10:05:33;;;;;;;6.25;1.70;;;19.90;97.40;;;;;;5066898;28;20395;-53
2022/08/28 10:08:00;;;;;;;5.43;1.48;;;20.00;96.90;;;;;;5061738;28;20059;-50
2022/08/28 10:10:27;;;;;;;6.35;1.52;;;20.10;95.70;;;;;;5057445;28;20375;-51
2022/08/28 10:12:58;;;;;;;7.90;1.42;;;20.20;95.50;;;;;;5055551;28;20037;-51
2022/08/28 10:15:24;;;;;;;5.18;1.45;;;20.30;95.50;;;;;;5053786;28;20041;-51
2022/08/28 10:17:51;;;;;;;7.25;1.50;;;20.30;95.10;;;;;;5053995;28;20037;-52
2022/08/28 10:20:18;;;;;;;4.75;1.40;;;20.30;94.90;;;;;;5068302;28;20093;-49
2022/08/28 10:22:45;;;;;;;6.30;1.50;;;20.30;95.00;;;;;;5058212;28;20045;-48
2022/08/28 10:25:12;;;;;;;5.65;1.50;;;20.40;95.20;;;;;;5054202;28;20055;-53
2022/08/28 10:27:38;;;;;;;7.13;1.88;;;20.40;95.20;;;;;;5052711;28;20542;-49
2022/08/28 10:30:06;;;;;;;5.97;1.85;;;20.50;94.90;;;;;;5056824;28;20075;-52
2022/08/28 10:32:38;;;;;;;4.32;1.60;;;20.60;94.90;;;;;;5062132;28;20487;-50
2022/08/28 10:35:05;;;;;;;7.07;1.60;;;20.80;95.20;;;;;;5060311;28;20048;-54
2022/08/28 10:37:32;;;;;;;5.03;1.65;;;20.90;94.20;;;;;;5055033;28;20041;-49
2022/08/28 10:39:58;;;;;;;5.72;1.60;;;21.00;94.60;;;;;;5068636;28;20079;-52
2022/08/28 10:42:25;;;;;;;4.45;1.48;;;21.20;93.90;;;;;;5054814;28;20032;-51
2022/08/28 10:45:04;;;;;;;5.95;1.77;;;21.20;94.10;;;;;;5054914;28;20090;-49
2022/08/28 10:47:30;;;;;;;4.85;1.50;;;21.30;93.90;;;;;;5053620;28;20041;-52
2022/08/28 10:50:00;;;;;;;4.53;1.58;;;21.50;93.30;;;;;;5063591;28;20040;-49
2022/08/28 10:52:27;;;;;;;5.53;1.55;;;21.60;93.50;;;;;;5064209;28;20036;-49
2022/08/28 10:54:54;;;;;;;4.38;1.30;;;21.70;93.10;;;;;;5057480;28;20549;-51
2022/08/28 10:57:21;;;;;;;6.97;1.67;;;21.70;93.00;;;;;;5066510;28;20429;-49
2022/08/28 10:59:48;;;;;;;4.90;1.35;;;21.80;93.00;;;;;;5066132;28;20040;-51
2022/08/28 11:02:15;;;;;;;6.60;1.60;;;21.90;93.20;;;;;;5056634;28;20041;-51
2022/08/28 11:04:42;;;;;;;6.32;1.80;;;22.00;92.70;;;;;;5055934;28;20037;-49
2022/08/28 11:07:09;;;;;;;6.55;1.50;;;22.00;92.60;;;;;;5063571;28;20039;-50
2022/08/28 11:09:35;;;;;;;8.93;2.13;;;22.00;92.30;;;;;;5065096;28;20097;-49
2022/08/28 11:12:02;;;;;;;5.63;1.65;;;22.10;92.20;;;;;;5069552;28;20044;-53
2022/08/28 11:14:29;;;;;;;5.38;1.40;;;22.20;91.50;;;;;;5072752;28;20055;-52
2022/08/28 11:16:56;;;;;;;4.68;1.40;;;22.20;91.30;;;;;;5069414;28;20553;-49
2022/08/28 11:19:23;;;;;;;5.22;1.30;;;22.20;91.90;;;;;;5066871;28;20033;-51
2022/08/28 11:21:49;;;;;;;8.23;1.30;;;22.20;91.00;;;;;;5073466;28;20479;-48
2022/08/28 11:24:16;;;;;;;5.00;1.48;;;22.20;90.70;;;;;;5073620;28;20040;-50
2022/08/28 11:26:45;;;;;;;4.45;1.55;;;22.30;90.20;;;;;;5063213;28;20041;-50
2022/08/28 11:29:12;;;;;;;5.63;1.63;;;22.30;90.40;;;;;;5054794;28;20098;-51
2022/08/28 11:31:38;;;;;;;5.80;1.30;;;22.20;88.90;;;;;;5066470;28;20037;-54
2022/08/28 11:34:05;;;;;;;4.03;1.23;;;22.20;89.90;;;;;;5069729;28;20365;-49
2022/08/28 11:36:32;;;;;;;5.65;1.45;;;22.10;90.10;;;;;;5066179;28;20103;-52
2022/08/28 11:38:59;;;;;;;6.15;1.50;;;22.10;90.30;;;;;;5061051;28;20040;-49
2022/08/28 11:41:26;;;;;;;4.28;1.50;;;22.10;89.50;;;;;;5060052;28;20079;-54
2022/08/28 11:43:53;;;;;;;3.67;1.15;;;22.10;89.50;;;;;;5070144;28;20036;-50
2022/08/28 11:46:19;;;;;;;3.88;1.42;;;22.10;88.60;;;;;;5068303;28;20036;-50
2022/08/28 11:48:49;;;;;;;3.95;1.10;;;22.10;88.50;;;;;;5057019;28;20087;-48
2022/08/28 11:51:16;;;;;;;5.25;1.42;;;22.10;87.80;;;;;;5060438;28;20036;-52
2022/08/28 11:53:44;;;;;;;6.05;1.30;;;22.10;87.40;;;;;;5076280;28;20102;-50
2022/08/28 11:56:11;;;;;;;4.60;1.70;;;22.10;88.80;;;;;;5067890;28;20482;-53
2022/08/28 11:58:41;;;;;;;4.63;1.52;;;22.20;89.90;;;;;;5057111;28;20040;-50
2022/08/28 12:01:09;;;;;;;7.30;1.42;;;22.40;89.00;;;;;;5056962;28;20041;-51
2022/08/28 12:03:36;;;;;;;4.30;1.52;;;22.40;87.10;;;;;;5069171;28;20057;-52
2022/08/28 12:06:02;;;;;;;4.15;1.60;;;22.40;87.00;;;;;;5068300;28;20037;-51
2022/08/28 12:08:29;;;;;;;3.72;1.20;;;22.40;86.20;;;;;;5063681;28;20138;-51
2022/08/28 12:10:56;;;;;;;6.85;1.52;;;22.50;86.30;;;;;;5061738;28;20045;-51
2022/08/28 12:13:23;;;;;;;4.45;1.48;;;22.60;87.30;;;;;;5058520;28;20041;-51
2022/08/28 12:15:50;;;;;;;4.50;1.40;;;22.60;87.40;;;;;;5063666;28;20072;-50
2022/08/28 12:18:17;;;;;;;3.42;1.20;;;22.60;86.00;;;;;;5062720;28;20037;-51
2022/08/28 12:20:44;;;;;;;4.38;1.10;;;22.70;86.30;;;;;;5072501;28;20062;-48
2022/08/28 12:23:11;;;;;;;6.93;1.65;;;22.80;86.40;;;;;;5066829;28;20033;-52
2022/08/28 12:25:38;;;;;;;3.22;1.58;;;22.80;86.40;;;;;;5055891;28;20076;-48
2022/08/28 12:28:05;;;;;;;4.90;1.40;;;22.80;87.50;;;;;;5056036;28;20045;-51
2022/08/28 12:30:38;;;;;;;6.20;1.45;;;22.90;86.90;;;;;;5062952;28;20127;-49
2022/08/28 12:33:05;;;;;;;4.15;1.20;;;23.00;86.00;;;;;;5064498;28;20043;-50
2022/08/28 12:35:32;;;;;;;4.47;1.27;;;22.90;85.20;;;;;;5071493;28;20048;-54
2022/08/28 12:37:58;;;;;;;4.53;1.35;;;23.10;85.30;;;;;;5058839;28;20052;-51
2022/08/28 12:40:25;;;;;;;4.20;1.35;;;23.20;84.70;;;;;;5058620;28;20124;-51
2022/08/28 12:42:52;;;;;;;3.75;1.40;;;23.20;83.80;;;;;;5064321;28;20483;-52
2022/08/28 12:45:21;;;;;;;3.22;1.23;;;23.20;83.50;;;;;;5067141;28;20040;-51
2022/08/28 12:47:48;;;;;;;5.10;1.50;;;23.30;82.30;;;;;;5062442;28;20488;-49
2022/08/28 12:50:14;;;;;;;3.40;1.40;;;23.40;82.70;;;;;;5055662;28;20408;-52
2022/08/28 12:52:41;;;;;;;3.67;1.42;;;23.30;83.60;;;;;;5067426;28;20403;-50